Time;durP1;ratioP1;P1;durP2;ratioP2;P2;SDS_P1;SDS_P2;PMS_P1;PMS_P2;Temp;Humidity;BMP_temperature;BMP_pressure;BME280_temperature;BME280_humidity;BME280_pressure;Samples;Min_cycle;Max_cycle;Signal;HPM_P1;HPM_P2
2023/07/14 00:00:47;;;;;;;0.00;0.00;;;;;;;15.95;97.52;100864.00;5020282;28;20215;-88
2023/07/14 00:03:16;;;;;;;1.27;1.17;;;;;;;15.91;97.32;100856.72;5016118;28;20204;-87
2023/07/14 00:05:43;;;;;;;2.90;1.27;;;;;;;15.86;97.19;100852.22;5017020;28;20438;-88
2023/07/14 00:08:17;;;;;;;0.83;0.83;;;;;;;15.84;97.64;100848.22;5017399;28;20394;-87
2023/07/14 00:10:42;;;;;;;0.40;0.40;;;;;;;15.80;97.75;100853.59;5014397;28;20193;-88
2023/07/14 00:13:08;;;;;;;0.87;0.87;;;;;;;15.75;98.15;100851.81;5016999;28;20740;-87
2023/07/14 00:15:37;;;;;;;1.00;0.90;;;;;;;15.72;98.33;100857.22;5017616;28;20184;-87
2023/07/14 00:18:32;;;;;;;0.70;0.70;;;;;;;15.72;97.99;100849.75;5017621;28;20179;-88
2023/07/14 00:20:57;;;;;;;2.03;1.93;;;;;;;15.65;98.38;100851.44;4995388;28;20564;-88
2023/07/14 00:23:22;;;;;;;1.50;1.40;;;;;;;15.65;98.56;100845.94;5015878;28;20207;-87
2023/07/14 00:25:49;;;;;;;6.73;1.00;;;;;;;15.58;98.65;100845.63;5014655;28;20254;-87
2023/07/14 00:28:20;;;;;;;1.13;1.03;;;;;;;15.54;99.70;100848.25;5014052;28;20199;-87
2023/07/14 00:30:47;;;;;;;0.57;0.57;;;;;;;15.47;100.00;100850.72;5014137;28;20179;-87
2023/07/14 00:33:16;;;;;;;1.00;1.00;;;;;;;15.44;100.00;100843.13;5016154;28;20219;-87
2023/07/14 00:35:42;;;;;;;0.77;0.77;;;;;;;15.41;100.00;100852.06;5016097;28;20559;-87
2023/07/14 00:38:09;;;;;;;1.43;1.30;;;;;;;15.36;100.00;100861.31;5014986;28;20181;-88
2023/07/14 00:40:37;;;;;;;1.27;1.17;;;;;;;15.36;100.00;100850.31;5014041;28;20247;-89
2023/07/14 00:43:05;;;;;;;0.60;0.60;;;;;;;15.40;100.00;100854.00;5014603;28;20208;-87
2023/07/14 00:45:32;;;;;;;8.40;1.10;;;;;;;15.35;100.00;100853.41;5014221;28;20269;-87
2023/07/14 00:48:04;;;;;;;0.60;0.60;;;;;;;15.34;100.00;100847.09;5014556;28;20663;-88
2023/07/14 00:51:01;;;;;;;1.43;0.80;;;;;;;15.36;100.00;100839.28;5012869;28;20196;-87
2023/07/14 00:53:30;;;;;;;2.87;1.53;;;;;;;15.34;100.00;100838.81;4991123;28;20235;-87
2023/07/14 00:56:12;;;;;;;1.57;1.47;;;;;;;15.35;100.00;100845.94;5014618;28;20203;-89
2023/07/14 00:58:39;;;;;;;4.13;0.80;;;;;;;15.32;100.00;100830.06;5015573;28;20195;-87
2023/07/14 01:01:13;;;;;;;2.90;1.40;;;;;;;15.26;100.00;100830.63;5018817;28;20702;-87
2023/07/14 01:03:43;;;;;;;3.83;2.50;;;;;;;15.22;100.00;100827.72;5017149;28;20215;-87
2023/07/14 01:06:36;;;;;;;1.83;1.73;;;;;;;15.27;100.00;100837.72;5016797;28;20234;-87
2023/07/14 01:09:08;;;;;;;1.77;1.67;;;;;;;15.20;100.00;100831.97;5017262;28;20184;-88
2023/07/14 01:11:43;;;;;;;1.23;1.20;;;;;;;15.23;100.00;100851.34;5017322;28;20243;-88
2023/07/14 01:14:23;;;;;;;2.07;1.83;;;;;;;15.15;100.00;100841.19;5017973;28;20219;-87
2023/07/14 01:16:51;;;;;;;1.10;1.03;;;;;;;15.17;100.00;100833.41;5017284;28;20188;-88
2023/07/14 01:19:48;;;;;;;0.90;0.90;;;;;;;15.17;100.00;100838.91;5017310;28;20211;-87
2023/07/14 01:22:19;;;;;;;1.40;1.30;;;;;;;15.14;100.00;100837.63;5012211;28;20312;-88
2023/07/14 01:25:15;;;;;;;1.33;1.23;;;;;;;15.21;100.00;100831.63;5017670;28;20184;-87
2023/07/14 01:27:41;;;;;;;10.97;1.80;;;;;;;15.18;100.00;100829.50;5017567;28;20208;-87
2023/07/14 01:30:07;;;;;;;0.20;0.20;;;;;;;15.23;100.00;100831.28;5016613;28;20242;-87
2023/07/14 01:32:41;;;;;;;0.00;0.00;;;;;;;15.29;100.00;100832.69;5017625;28;20266;-87
2023/07/14 01:35:08;;;;;;;0.00;0.00;;;;;;;15.30;100.00;100826.84;5018819;28;20191;-88
2023/07/14 01:37:39;;;;;;;0.50;0.50;;;;;;;15.25;100.00;100831.75;5017866;28;20555;-88
2023/07/14 01:40:12;;;;;;;0.10;0.10;;;;;;;15.31;100.00;100825.72;5017810;28;20180;-88
2023/07/14 01:42:41;;;;;;;0.20;0.20;;;;;;;15.29;100.00;100832.69;5015841;28;20196;-87
2023/07/14 01:45:13;;;;;;;0.00;0.00;;;;;;;15.21;100.00;100823.38;5018822;28;20575;-87
2023/07/14 01:47:42;;;;;;;0.00;0.00;;;;;;;15.22;100.00;100837.94;5020641;28;20203;-88
2023/07/14 01:50:17;;;;;;;0.00;0.00;;;;;;;15.04;100.00;100829.75;5020653;28;20211;-89
2023/07/14 01:52:45;;;;;;;0.00;0.00;;;;;;;14.91;100.00;100832.75;5015858;28;20235;-88
2023/07/14 01:55:14;;;;;;;0.30;0.30;;;;;;;14.70;100.00;100840.91;5014727;28;20194;-87
2023/07/14 01:57:42;;;;;;;0.00;0.00;;;;;;;14.63;100.00;100835.13;5014698;28;20189;-88
2023/07/14 02:00:12;;;;;;;0.37;0.37;;;;;;;14.98;100.00;100850.34;5014513;28;20184;-88
2023/07/14 02:02:39;;;;;;;0.07;0.07;;;;;;;15.11;100.00;100848.50;5014710;28;20701;-88
2023/07/14 02:05:33;;;;;;;0.00;0.00;;;;;;;15.07;100.00;100842.06;5016147;28;20260;-87
2023/07/14 02:08:03;;;;;;;0.00;0.00;;;;;;;14.95;100.00;100841.94;5014722;28;20287;-88
2023/07/14 02:10:29;;;;;;;0.00;0.00;;;;;;;14.85;100.00;100846.69;5014312;28;20196;-87
2023/07/14 02:12:55;;;;;;;0.00;0.00;;;;;;;14.71;100.00;100837.84;5014606;28;20892;-88
2023/07/14 02:15:27;;;;;;;0.00;0.00;;;;;;;14.72;100.00;100844.13;5014390;28;20631;-88
2023/07/14 02:17:54;;;;;;;0.00;0.00;;;;;;;14.70;100.00;100849.16;5013924;28;20777;-88
2023/07/14 02:20:27;;;;;;;0.40;0.40;;;;;;;14.46;100.00;100845.03;5014118;28;20203;-87
2023/07/14 02:22:55;;;;;;;0.10;0.10;;;;;;;14.36;100.00;100852.81;5024035;28;20199;-87
2023/07/14 02:25:23;;;;;;;0.00;0.00;;;;;;;14.26;100.00;100851.19;5030754;28;20188;-87
2023/07/14 02:27:48;;;;;;;0.00;0.00;;;;;;;14.24;100.00;100858.97;5029603;28;20203;-88
2023/07/14 02:30:17;;;;;;;0.00;0.00;;;;;;;14.29;100.00;100873.31;5027941;28;20223;-86
2023/07/14 02:32:50;;;;;;;0.00;0.00;;;;;;;14.35;100.00;100876.72;5032233;28;20303;-88
2023/07/14 02:35:29;;;;;;;0.00;0.00;;;;;;;14.43;100.00;100878.63;5018485;28;20192;-88
2023/07/14 02:38:03;;;;;;;0.00;0.00;;;;;;;14.18;100.00;100885.00;5014315;28;20230;-87
2023/07/14 02:40:37;;;;;;;0.00;0.00;;;;;;;14.32;100.00;100888.38;5014300;28;20184;-87
2023/07/14 02:43:09;;;;;;;0.00;0.00;;;;;;;14.45;100.00;100889.34;5013858;28;20199;-88
2023/07/14 02:45:39;;;;;;;0.00;0.00;;;;;;;14.58;100.00;100886.41;5013853;28;20184;-88
2023/07/14 02:48:09;;;;;;;0.10;0.10;;;;;;;14.56;100.00;100874.13;5013634;28;20188;-88
2023/07/14 02:50:35;;;;;;;0.40;0.40;;;;;;;14.46;100.00;100871.72;5015062;28;20668;-89
2023/07/14 02:53:00;;;;;;;0.00;0.00;;;;;;;14.38;100.00;100869.78;5013744;28;20212;-88
2023/07/14 02:55:26;;;;;;;0.20;0.20;;;;;;;14.49;100.00;100876.56;5014176;28;20349;-87
2023/07/14 02:57:51;;;;;;;0.00;0.00;;;;;;;14.51;100.00;100879.81;5013209;28;20188;-87
2023/07/14 03:00:18;;;;;;;0.00;0.00;;;;;;;14.46;100.00;100883.50;5013610;28;20195;-89
2023/07/14 03:02:43;;;;;;;0.00;0.00;;;;;;;14.48;100.00;100880.47;5012908;28;20216;-87
2023/07/14 03:05:11;;;;;;;0.00;0.00;;;;;;;14.38;100.00;100875.28;5014010;28;20184;-88
2023/07/14 03:07:37;;;;;;;0.10;0.10;;;;;;;14.22;100.00;100866.72;5013488;28;20295;-89
2023/07/14 03:10:02;;;;;;;0.17;0.17;;;;;;;14.06;100.00;100863.66;5014091;28;20212;-87
2023/07/14 03:12:28;;;;;;;0.20;0.20;;;;;;;13.98;100.00;100868.03;5013375;28;20577;-87
2023/07/14 03:14:53;;;;;;;0.00;0.00;;;;;;;13.94;100.00;100871.75;5013891;28;20272;-86
2023/07/14 03:17:19;;;;;;;0.07;0.07;;;;;;;13.91;100.00;100884.19;5014741;28;20185;-87
2023/07/14 03:19:44;;;;;;;0.00;0.00;;;;;;;13.83;100.00;100875.94;5012913;28;20203;-88
2023/07/14 03:22:09;;;;;;;0.20;0.20;;;;;;;13.80;100.00;100879.34;5013811;28;20536;-87
2023/07/14 03:24:35;;;;;;;0.00;0.00;;;;;;;13.75;100.00;100882.25;5013010;28;20871;-87
2023/07/14 03:27:00;;;;;;;0.00;0.00;;;;;;;13.92;100.00;100885.00;5013317;28;20600;-87
2023/07/14 03:29:25;;;;;;;0.00;0.00;;;;;;;13.96;100.00;100885.97;5013012;28;20184;-87
2023/07/14 03:31:51;;;;;;;0.00;0.00;;;;;;;13.97;100.00;100874.66;5014304;28;20180;-87
2023/07/14 03:34:16;;;;;;;0.00;0.00;;;;;;;13.91;100.00;100878.72;5013036;28;20568;-87
2023/07/14 03:36:42;;;;;;;0.30;0.30;;;;;;;13.88;100.00;100873.03;5012966;28;20243;-88
2023/07/14 03:39:26;;;;;;;0.00;0.00;;;;;;;13.86;100.00;100870.59;5013357;28;20263;-87
2023/07/14 03:42:01;;;;;;;0.00;0.00;;;;;;;13.84;100.00;100869.31;5005254;28;20231;-87
2023/07/14 03:44:27;;;;;;;0.20;0.20;;;;;;;13.80;100.00;100866.41;5013014;28;20210;-87
2023/07/14 03:46:53;;;;;;;0.00;0.00;;;;;;;13.79;100.00;100866.75;5013020;28;20184;-86
2023/07/14 03:49:18;;;;;;;0.10;0.10;;;;;;;13.76;100.00;100870.13;5013097;28;20184;-87
2023/07/14 03:51:44;;;;;;;0.10;0.10;;;;;;;13.76;100.00;100876.44;5012640;28;20192;-87
2023/07/14 03:54:10;;;;;;;0.10;0.07;;;;;;;13.74;100.00;100880.63;5013660;28;20587;-87
2023/07/14 03:56:36;;;;;;;0.00;0.00;;;;;;;13.80;100.00;100879.34;5012609;28;20188;-88
2023/07/14 03:59:04;;;;;;;0.00;0.00;;;;;;;13.83;100.00;100876.75;5015173;28;20185;-87
2023/07/14 04:01:29;;;;;;;0.00;0.00;;;;;;;13.88;100.00;100875.78;5013952;28;20265;-88
2023/07/14 04:03:56;;;;;;;0.00;0.00;;;;;;;13.91;100.00;100866.91;5013564;28;20261;-87
2023/07/14 04:06:21;;;;;;;0.00;0.00;;;;;;;14.01;100.00;100869.31;5015380;28;20183;-87
2023/07/14 04:08:52;;;;;;;0.00;0.00;;;;;;;14.11;100.00;100877.25;5013712;28;20180;-87
2023/07/14 04:11:18;;;;;;;0.00;0.00;;;;;;;14.24;100.00;100875.44;5012461;28;20647;-88
2023/07/14 04:13:43;;;;;;;0.00;0.00;;;;;;;13.98;100.00;100861.72;5012247;28;20220;-88
2023/07/14 04:16:08;;;;;;;0.00;0.00;;;;;;;14.02;100.00;100864.63;5012410;28;20199;-88
2023/07/14 04:18:35;;;;;;;0.00;0.00;;;;;;;14.18;100.00;100872.06;5014450;28;20658;-87
2023/07/14 04:21:07;;;;;;;0.00;0.00;;;;;;;14.04;100.00;100860.44;5013354;28;20279;-87
2023/07/14 04:23:33;;;;;;;0.00;0.00;;;;;;;13.91;100.00;100862.22;5012784;28;20204;-88
2023/07/14 04:25:59;;;;;;;0.10;0.10;;;;;;;13.99;100.00;100868.84;5014574;28;20196;-88
2023/07/14 04:28:28;;;;;;;0.00;0.00;;;;;;;14.10;100.00;100875.63;5014225;28;20185;-87
2023/07/14 04:30:58;;;;;;;0.00;0.00;;;;;;;14.35;100.00;100875.94;5013153;28;20183;-88
2023/07/14 04:33:24;;;;;;;0.00;0.00;;;;;;;14.22;100.00;100867.53;5012308;28;20210;-87
2023/07/14 04:35:51;;;;;;;0.00;0.00;;;;;;;14.09;100.00;100865.75;5020142;28;20195;-88
2023/07/14 04:38:17;;;;;;;1.60;1.60;;;;;;;14.05;100.00;100867.56;5018330;28;20566;-89
2023/07/14 04:40:42;;;;;;;0.13;0.13;;;;;;;13.96;100.00;100861.25;5019220;28;20190;-88
2023/07/14 04:43:07;;;;;;;0.67;0.67;;;;;;;13.93;100.00;100870.13;5024193;28;20207;-88
2023/07/14 04:45:40;;;;;;;0.00;0.00;;;;;;;14.04;100.00;100879.69;5018393;28;20175;-89
2023/07/14 04:48:09;;;;;;;0.00;0.00;;;;;;;14.21;100.00;100882.41;5012389;28;20263;-88
2023/07/14 05:00:53;;;;;;;0.07;0.07;;;;;;;14.99;100.00;100875.91;5006456;22;20745;-77
2023/07/14 05:05:46;;;;;;;0.00;0.00;;;;;;;15.03;100.00;100858.41;5015980;28;20220;-77
2023/07/14 05:08:11;;;;;;;0.00;0.00;;;;;;;15.14;100.00;100865.16;5016856;28;20187;-77
2023/07/14 05:10:38;;;;;;;0.00;0.00;;;;;;;15.14;100.00;100859.66;5017284;28;20176;-77
2023/07/14 05:13:04;;;;;;;0.00;0.00;;;;;;;15.23;100.00;100867.06;5017766;28;20259;-78
2023/07/14 05:15:30;;;;;;;0.00;0.00;;;;;;;15.38;100.00;100867.31;5014227;28;20180;-80
2023/07/14 05:17:55;;;;;;;0.00;0.00;;;;;;;15.50;100.00;100871.28;5007253;28;20185;-81
2023/07/14 05:20:22;;;;;;;0.00;0.00;;;;;;;15.56;100.00;100856.97;5012998;28;20280;-79
2023/07/14 05:22:50;;;;;;;0.00;0.00;;;;;;;15.61;100.00;100856.00;5013254;28;20220;-79
2023/07/14 05:25:16;;;;;;;0.00;0.00;;;;;;;15.81;100.00;100863.47;5013192;28;20183;-79
2023/07/14 05:27:45;;;;;;;0.40;0.33;;;;;;;15.81;100.00;100860.72;5012867;28;20227;-77
2023/07/14 05:30:18;;;;;;;0.33;0.33;;;;;;;16.00;100.00;100861.03;5013023;28;20223;-79
2023/07/14 05:32:45;;;;;;;0.00;0.00;;;;;;;16.12;100.00;100853.97;5012447;28;20197;-79
2023/07/14 05:35:11;;;;;;;0.00;0.00;;;;;;;16.17;100.00;100856.50;5028243;28;20880;-78
2023/07/14 05:37:37;;;;;;;0.00;0.00;;;;;;;16.45;100.00;100854.75;5036396;22;20280;-79
2023/07/14 05:40:08;;;;;;;0.00;0.00;;;;;;;16.25;100.00;100836.31;5052843;28;20179;-79
2023/07/14 05:42:33;;;;;;;0.00;0.00;;;;;;;16.44;100.00;100839.34;5055454;28;20171;-79
2023/07/14 05:44:59;;;;;;;0.00;0.00;;;;;;;16.70;100.00;100841.84;5037264;28;20211;-79
2023/07/14 05:47:24;;;;;;;0.20;0.20;;;;;;;16.72;100.00;100824.94;5037313;28;20195;-79
2023/07/14 05:49:50;;;;;;;0.00;0.00;;;;;;;16.82;99.54;100828.06;5038225;28;20180;-79
2023/07/14 05:52:15;;;;;;;0.00;0.00;;;;;;;17.09;99.26;100837.63;5036175;28;20172;-79
2023/07/14 05:54:41;;;;;;;0.00;0.00;;;;;;;17.30;98.82;100836.69;5024603;28;20207;-79
2023/07/14 05:57:06;;;;;;;0.00;0.00;;;;;;;17.38;96.14;100816.44;5031166;28;20271;-79
2023/07/14 05:59:32;;;;;;;0.00;0.00;;;;;;;17.43;98.20;100828.03;5036986;28;20179;-78
2023/07/14 06:01:57;;;;;;;0.00;0.00;;;;;;;17.55;98.84;100819.72;5037114;28;20677;-79
2023/07/14 06:04:23;;;;;;;0.00;0.00;;;;;;;17.65;98.52;100831.44;5036708;28;20204;-79
2023/07/14 06:06:48;;;;;;;0.00;0.00;;;;;;;17.72;98.05;100821.44;5035860;28;20176;-79
2023/07/14 06:09:14;;;;;;;0.00;0.00;;;;;;;17.79;97.54;100818.88;5034637;28;20684;-78
2023/07/14 06:11:40;;;;;;;0.00;0.00;;;;;;;17.74;97.04;100815.56;5035587;28;20184;-79
2023/07/14 06:14:06;;;;;;;0.00;0.00;;;;;;;17.76;97.58;100816.81;5027530;28;20744;-79
2023/07/14 06:16:31;;;;;;;0.00;0.00;;;;;;;17.75;97.49;100811.63;5020050;28;20185;-79
2023/07/14 06:18:56;;;;;;;0.13;0.13;;;;;;;17.83;97.21;100807.94;5022279;28;20556;-79
2023/07/14 06:21:22;;;;;;;0.00;0.00;;;;;;;17.84;96.81;100810.34;5016833;28;20184;-78
2023/07/14 06:23:47;;;;;;;0.00;0.00;;;;;;;17.72;96.85;100799.31;5021814;28;20192;-78
2023/07/14 06:26:13;;;;;;;0.00;0.00;;;;;;;17.74;96.10;100797.00;5022746;28;20176;-79
2023/07/14 06:28:38;;;;;;;0.00;0.00;;;;;;;17.93;94.55;100790.81;5021385;28;20703;-79
2023/07/14 06:31:06;;;;;;;0.00;0.00;;;;;;;18.08;94.67;100795.63;5021381;28;20180;-78
2023/07/14 06:33:33;;;;;;;0.00;0.00;;;;;;;18.18;93.97;100796.25;5022187;28;20743;-79
2023/07/14 06:35:59;;;;;;;0.00;0.00;;;;;;;18.27;94.16;100786.63;5024347;28;20679;-79
2023/07/14 06:38:25;;;;;;;0.00;0.00;;;;;;;18.30;93.14;100779.56;5027898;28;20199;-78
2023/07/14 06:40:57;;;;;;;0.00;0.00;;;;;;;18.43;94.34;100786.63;5026992;28;20181;-78
2023/07/14 06:43:24;;;;;;;0.00;0.00;;;;;;;18.48;93.13;100782.78;5027579;28;20196;-78
2023/07/14 06:45:49;;;;;;;0.03;0.03;;;;;;;18.64;93.29;100784.44;5024174;28;20542;-78
2023/07/14 06:48:15;;;;;;;0.67;0.67;;;;;;;18.71;92.24;100781.06;5031233;28;20267;-78
2023/07/14 06:50:41;;;;;;;0.00;0.00;;;;;;;18.81;91.53;100788.03;5037059;28;20180;-78
2023/07/14 06:53:07;;;;;;;0.20;0.20;;;;;;;18.88;90.00;100772.38;5036574;28;20266;-78
2023/07/14 06:55:32;;;;;;;0.77;0.70;;;;;;;18.64;86.42;100751.22;5035900;28;20184;-78
2023/07/14 06:57:57;;;;;;;0.00;0.00;;;;;;;18.70;85.74;100757.31;5039156;28;20179;-78
2023/07/14 07:00:24;;;;;;;0.00;0.00;;;;;;;18.85;85.49;100763.97;5045959;28;20243;-78
2023/07/14 07:02:49;;;;;;;0.00;0.00;;;;;;;18.98;86.68;100777.34;5044403;28;20175;-78
2023/07/14 07:05:15;;;;;;;0.00;0.00;;;;;;;19.16;87.88;100783.31;5031571;28;20181;-80
2023/07/14 07:07:40;;;;;;;0.00;0.00;;;;;;;19.27;88.35;100784.34;5024893;28;20568;-79
2023/07/14 07:10:07;;;;;;;0.50;0.50;;;;;;;19.21;83.75;100762.81;5022082;28;20252;-81
2023/07/14 07:12:32;;;;;;;0.33;0.33;;;;;;;19.27;82.47;100755.84;5022857;28;20188;-85
2023/07/14 07:14:58;;;;;;;0.10;0.10;;;;;;;19.38;83.66;100767.13;5035512;28;20257;-83
2023/07/14 07:17:23;;;;;;;0.30;0.30;;;;;;;19.39;81.98;100761.25;5027223;28;20184;-82
2023/07/14 07:19:49;;;;;;;0.57;0.57;;;;;;;19.35;79.87;100745.72;5031272;28;20192;-83
2023/07/14 07:22:14;;;;;;;1.03;0.47;;;;;;;19.41;77.53;100745.06;5022719;28;20773;-84
2023/07/14 07:24:40;;;;;;;0.90;0.90;;;;;;;19.35;76.53;100740.16;5017628;28;20204;-85
2023/07/14 07:27:05;;;;;;;1.10;1.10;;;;;;;19.49;77.75;100746.00;5015270;28;20534;-78
2023/07/14 07:29:31;;;;;;;0.47;0.47;;;;;;;19.72;76.16;100737.81;5024701;28;20552;-82
2023/07/14 07:31:57;;;;;;;0.00;0.00;;;;;;;19.78;75.90;100747.41;5029449;28;20887;-79
2023/07/14 07:34:22;;;;;;;0.00;0.00;;;;;;;19.95;75.40;100738.63;5035402;28;20298;-79
2023/07/14 07:36:48;;;;;;;0.27;0.27;;;;;;;19.96;75.22;100725.56;5035194;28;20188;-86
2023/07/14 07:39:14;;;;;;;0.80;0.80;;;;;;;20.02;74.71;100719.34;5020075;28;20196;-86
2023/07/14 07:41:40;;;;;;;0.00;0.00;;;;;;;20.04;73.88;100713.44;5018059;28;20192;-85
2023/07/14 07:44:08;;;;;;;0.50;0.50;;;;;;;20.06;74.67;100714.66;5034416;28;20341;-85
2023/07/14 07:46:35;;;;;;;0.00;0.00;;;;;;;20.11;74.76;100717.16;5035986;28;20186;-83
2023/07/14 07:49:00;;;;;;;0.00;0.00;;;;;;;20.27;73.97;100719.00;5036659;28;20183;-85
2023/07/14 07:51:26;;;;;;;0.00;0.00;;;;;;;20.24;71.50;100692.78;5033387;28;20179;-85
2023/07/14 07:53:51;;;;;;;0.40;0.40;;;;;;;20.31;72.27;100703.22;5027305;28;20633;-83
2023/07/14 07:56:17;;;;;;;0.00;0.00;;;;;;;20.14;71.46;100693.41;5035065;28;20229;-85
2023/07/14 07:58:43;;;;;;;0.20;0.20;;;;;;;20.20;72.40;100692.72;5027264;28;20535;-77
2023/07/14 08:01:15;;;;;;;0.10;0.10;;;;;;;20.42;73.38;100698.69;5037628;28;20619;-78
2023/07/14 08:03:40;;;;;;;0.10;0.10;;;;;;;20.52;72.11;100698.03;5035811;28;20210;-79
2023/07/14 08:06:06;;;;;;;0.00;0.00;;;;;;;20.50;71.95;100690.06;5037093;28;20184;-78
2023/07/14 08:08:32;;;;;;;0.60;0.60;;;;;;;20.26;70.97;100675.78;5036503;28;20650;-78
2023/07/14 08:10:58;;;;;;;0.33;0.33;;;;;;;20.31;70.60;100689.34;5033766;28;20180;-78
2023/07/14 08:13:25;;;;;;;4.33;0.23;;;;;;;20.56;71.19;100690.56;5033786;28;20211;-79
2023/07/14 08:15:54;;;;;;;0.20;0.20;;;;;;;20.58;70.82;100679.91;5034425;28;20184;-78
2023/07/14 08:18:20;;;;;;;3.70;1.50;;;;;;;20.56;68.82;100675.91;5033467;28;20180;-78
2023/07/14 08:20:47;;;;;;;1.13;1.03;;;;;;;20.67;69.16;100666.53;5032684;28;20207;-77
2023/07/14 08:23:14;;;;;;;0.10;0.10;;;;;;;20.71;69.43;100667.41;5034292;28;20195;-78
2023/07/14 08:25:40;;;;;;;0.00;0.00;;;;;;;20.78;69.24;100658.34;5034095;28;20561;-78
2023/07/14 08:28:05;;;;;;;0.50;0.50;;;;;;;20.90;70.37;100672.03;5033768;28;20180;-79
2023/07/14 08:30:31;;;;;;;0.93;0.93;;;;;;;20.73;65.87;100642.81;5034276;28;20189;-78
2023/07/14 08:32:57;;;;;;;0.10;0.10;;;;;;;20.70;66.18;100646.38;5034154;28;20230;-78
2023/07/14 08:35:24;;;;;;;0.77;0.60;;;;;;;20.61;65.85;100639.47;5034755;28;20601;-78
2023/07/14 08:37:50;;;;;;;0.97;0.77;;;;;;;20.53;65.39;100633.00;5034567;28;20769;-78
2023/07/14 08:40:21;;;;;;;1.20;0.93;;;;;;;20.64;66.14;100644.28;5034231;28;20179;-78
2023/07/14 08:43:17;;;;;;;0.10;0.10;;;;;;;20.85;66.82;100636.25;5017084;28;20585;-78
2023/07/14 08:46:00;;;;;;;0.20;0.20;;;;;;;21.10;67.04;100645.69;5013474;28;20223;-77
2023/07/14 08:48:37;;;;;;;0.00;0.00;;;;;;;21.18;66.71;100645.78;5026134;28;20267;-78
2023/07/14 08:51:20;;;;;;;0.00;0.00;;;;;;;21.36;66.38;100652.38;5033833;28;20203;-77
2023/07/14 08:53:55;;;;;;;0.00;0.00;;;;;;;21.49;65.06;100644.59;5033508;28;20303;-78
2023/07/14 08:56:20;;;;;;;0.57;0.57;;;;;;;21.56;61.27;100630.78;5032301;28;20695;-78
2023/07/14 08:58:49;;;;;;;0.23;0.20;;;;;;;21.69;60.27;100629.31;5033613;28;20263;-78
2023/07/14 09:01:44;;;;;;;0.40;0.40;;;;;;;21.87;61.09;100635.06;5033563;28;20203;-78
2023/07/14 09:04:23;;;;;;;10.63;0.73;;;;;;;21.76;59.87;100621.03;5032058;28;20667;-78
2023/07/14 09:06:48;;;;;;;0.53;0.53;;;;;;;21.78;59.67;100620.66;5033774;28;20599;-78
2023/07/14 09:09:24;;;;;;;0.47;0.47;;;;;;;21.67;59.74;100612.19;5033786;28;20188;-78
2023/07/14 09:12:05;;;;;;;0.10;0.10;;;;;;;21.83;59.68;100609.16;5031926;28;20191;-78
2023/07/14 09:14:55;;;;;;;1.13;0.30;;;;;;;21.84;57.03;100596.84;5031742;28;20211;-78
2023/07/14 09:17:36;;;;;;;0.50;0.27;;;;;;;21.92;56.50;100595.75;5033555;28;20187;-78
2023/07/14 09:20:32;;;;;;;0.33;0.33;;;;;;;21.95;56.60;100595.75;5035026;28;20180;-78
2023/07/14 09:23:16;;;;;;;0.57;0.57;;;;;;;21.96;56.87;100585.44;5037706;28;20179;-77
2023/07/14 09:26:00;;;;;;;1.30;1.20;;;;;;;22.06;54.75;100583.97;5036485;28;20321;-78
2023/07/14 09:28:46;;;;;;;0.40;0.40;;;;;;;22.14;56.28;100580.06;5037994;28;20640;-77
2023/07/14 09:31:40;;;;;;;0.30;0.30;;;;;;;22.20;55.18;100576.50;5037335;28;20211;-78
2023/07/14 09:34:32;;;;;;;0.00;0.00;;;;;;;22.41;56.04;100583.41;5036224;28;20228;-78
2023/07/14 09:36:58;;;;;;;0.00;0.00;;;;;;;22.55;56.93;100581.50;5036810;28;20198;-78
2023/07/14 09:39:33;;;;;;;0.33;0.33;;;;;;;22.79;57.04;100577.25;5037169;28;20183;-78
2023/07/14 09:42:03;;;;;;;0.20;0.20;;;;;;;23.19;56.27;100588.59;5036652;28;20201;-78
2023/07/14 09:44:29;;;;;;;0.00;0.00;;;;;;;22.91;55.15;100569.78;5037230;28;20278;-78
2023/07/14 09:46:55;;;;;;;0.07;0.07;;;;;;;22.88;53.80;100557.44;5037139;28;20239;-77
2023/07/14 09:49:57;;;;;;;0.00;0.00;;;;;;;22.70;56.94;100567.63;5036610;28;20671;-78
2023/07/14 09:52:27;;;;;;;0.00;0.00;;;;;;;22.96;56.57;100563.81;5025330;28;20194;-78
2023/07/14 09:54:59;;;;;;;0.77;0.77;;;;;;;23.04;54.67;100546.72;5036180;28;20618;-78
2023/07/14 09:57:27;;;;;;;0.63;0.63;;;;;;;22.95;55.48;100548.28;5035966;28;20176;-78
2023/07/14 09:59:59;;;;;;;0.00;0.00;;;;;;;23.27;55.13;100551.94;5036517;28;20179;-78
2023/07/14 10:02:29;;;;;;;0.40;0.40;;;;;;;23.49;54.46;100544.44;5036793;28;20266;-78
2023/07/14 10:05:00;;;;;;;1.23;1.13;;;;;;;23.44;52.53;100528.09;5035045;28;20203;-78
2023/07/14 10:07:26;;;;;;;1.00;0.93;;;;;;;23.45;53.15;100530.47;5036848;28;20183;-78
2023/07/14 10:09:57;;;;;;;0.97;0.97;;;;;;;23.22;53.68;100526.47;5036484;28;20594;-77
2023/07/14 10:12:22;;;;;;;0.00;0.00;;;;;;;23.53;55.83;100536.06;5036942;28;20202;-78
2023/07/14 10:14:49;;;;;;;0.07;0.07;;;;;;;23.80;55.05;100530.91;5035845;28;20558;-77
2023/07/14 10:17:26;;;;;;;0.00;0.00;;;;;;;24.12;53.11;100519.72;5036955;28;20203;-78
2023/07/14 10:19:52;;;;;;;0.00;0.00;;;;;;;24.35;52.45;100522.09;5035834;28;20658;-78
2023/07/14 10:22:20;;;;;;;0.23;0.23;;;;;;;24.69;53.55;100533.53;5034918;28;20194;-77
2023/07/14 10:24:55;;;;;;;0.00;0.00;;;;;;;24.71;53.38;100523.53;5036962;28;20294;-78
2023/07/14 10:27:28;;;;;;;0.00;0.00;;;;;;;24.82;52.58;100521.50;5034904;28;20187;-78
2023/07/14 10:30:06;;;;;;;0.20;0.20;;;;;;;24.77;51.55;100513.56;5036337;28;20179;-78
2023/07/14 10:32:46;;;;;;;0.13;0.13;;;;;;;24.36;50.99;100495.75;5035648;28;20183;-78
2023/07/14 10:35:18;;;;;;;0.10;0.10;;;;;;;24.43;51.81;100498.50;5034479;28;20674;-78
2023/07/14 10:37:54;;;;;;;0.00;0.00;;;;;;;24.58;52.44;100502.84;5035998;28;20192;-78
2023/07/14 10:40:23;;;;;;;0.93;0.53;;;;;;;24.57;53.31;100504.03;5034853;28;20183;-78
2023/07/14 10:43:03;;;;;;;0.00;0.00;;;;;;;24.65;52.32;100497.25;5035154;28;20183;-77
2023/07/14 10:45:29;;;;;;;0.27;0.03;;;;;;;24.70;52.81;100496.00;5035867;28;20259;-78
2023/07/14 10:47:59;;;;;;;0.00;0.00;;;;;;;24.37;52.22;100488.97;5036170;28;20208;-78
2023/07/14 10:50:35;;;;;;;0.00;0.00;;;;;;;24.29;51.48;100483.38;5035626;28;20179;-78
2023/07/14 10:53:19;;;;;;;0.00;0.00;;;;;;;24.08;53.34;100479.84;5034254;28;20644;-78
2023/07/14 10:55:48;;;;;;;0.13;0.13;;;;;;;23.91;53.22;100473.09;5036170;28;20674;-78
2023/07/14 10:58:26;;;;;;;0.00;0.00;;;;;;;24.06;54.49;100482.25;5035412;28;20184;-78
2023/07/14 11:01:05;;;;;;;0.00;0.00;;;;;;;24.29;53.18;100468.59;5033264;28;20172;-78
2023/07/14 11:03:34;;;;;;;0.23;0.23;;;;;;;24.24;52.74;100469.81;5033151;28;20195;-76
2023/07/14 11:06:12;;;;;;;0.00;0.00;;;;;;;24.54;53.65;100482.50;5033494;28;20668;-78
2023/07/14 11:08:37;;;;;;;0.30;0.30;;;;;;;24.77;52.50;100480.00;5033446;28;20183;-78
2023/07/14 11:11:20;;;;;;;0.03;0.03;;;;;;;24.72;52.41;100471.25;5034067;28;20226;-78
2023/07/14 11:14:16;;;;;;;1.40;1.33;;;;;;;25.01;52.17;100467.09;5033037;28;20263;-75
2023/07/14 11:16:47;;;;;;;0.00;0.00;;;;;;;25.18;50.34;100457.03;5033389;28;20180;-75
2023/07/14 11:19:39;;;;;;;7.50;0.97;;;;;;;25.26;51.98;100471.75;5031657;28;20191;-76
2023/07/14 11:22:14;;;;;;;0.83;0.70;;;;;;;25.31;50.39;100452.50;5031767;28;20183;-77
2023/07/14 11:24:57;;;;;;;0.50;0.50;;;;;;;24.89;50.37;100445.22;5032914;28;20187;-76
2023/07/14 11:27:50;;;;;;;0.00;0.00;;;;;;;24.99;49.98;100449.13;5031554;28;20184;-76
2023/07/14 11:30:39;;;;;;;0.00;0.00;;;;;;;25.34;51.08;100453.72;5030218;28;20671;-76
2023/07/14 11:33:16;;;;;;;1.63;0.93;;;;;;;25.35;49.36;100439.31;5024930;28;20203;-76
2023/07/14 11:36:01;;;;;;;0.10;0.10;;;;;;;25.61;50.15;100446.28;5030682;28;20654;-76
2023/07/14 11:38:29;;;;;;;7.20;1.17;;;;;;;25.73;48.74;100439.38;5031302;28;20651;-77
2023/07/14 11:40:55;;;;;;;0.00;0.00;;;;;;;25.52;49.64;100434.75;5032344;28;20229;-76
2023/07/14 11:43:24;;;;;;;1.40;1.07;;;;;;;25.41;48.82;100426.47;5030630;28;20291;-76
2023/07/14 11:45:58;;;;;;;0.67;0.67;;;;;;;25.41;48.69;100420.88;5032374;28;20544;-77
2023/07/14 11:48:33;;;;;;;0.83;0.40;;;;;;;25.77;50.30;100434.56;5032351;28;20186;-77